< Typhoon 195221 1952 Season Typhoon 195223 >
Typhoon 195222 (CARMEN)
General InformationTrack Information on Google Maps || Disaster Info.ResourceGoogle EarthGE AnimationAtom FeedGeoJSON
Detalied Best Track (Time Zone = UTC)
Year Month Day Hour Lat. Long. Pressure (hPa) Wind (kt) Class Image Chart
1952 11 16 00 13.5 143.5 1008 0 2 -- Chart
1952 11 16 06 14.0 142.0 1006 0 2 -- Chart
1952 11 16 12 14.2 140.5 1004 0 2 -- Chart
1952 11 16 18 14.3 138.7 1000 0 2 -- Chart
1952 11 17 00 14.5 136.1 998 0 9 -- Chart
1952 11 17 06 14.7 134.2 995 0 9 -- Chart
1952 11 17 12 15.4 131.5 985 0 9 -- Chart
1952 11 17 18 16.4 129.2 980 0 9 -- Chart
1952 11 18 00 17.0 128.3 978 0 9 -- Chart
1952 11 18 06 17.2 127.9 970 0 9 -- Chart
1952 11 18 12 17.8 127.4 970 0 9 -- Chart
1952 11 18 18 18.7 127.3 965 0 9 -- Chart
1952 11 19 00 19.6 127.3 960 0 9 -- Chart
1952 11 19 06 20.4 127.1 962 0 9 -- Chart
1952 11 19 12 21.2 127.0 962 0 9 -- Chart
1952 11 19 18 21.9 127.1 965 0 9 -- Chart
1952 11 20 00 22.7 127.2 970 0 9 -- Chart
1952 11 20 06 23.8 127.9 975 0 9 -- Chart
1952 11 20 12 24.9 128.6 975 0 9 -- Chart
1952 11 20 18 25.8 129.6 980 0 9 -- Chart
1952 11 21 00 26.7 130.8 980 0 9 -- Chart
1952 11 21 06 27.2 132.5 990 0 9 -- Chart
1952 11 21 12 27.9 134.9 995 0 9 -- Chart
1952 11 21 18 28.3 137.4 1002 0 9 -- Chart
1952 11 22 00 28.5 140.0 1006 0 9 -- Chart
1952 11 22 06 28.8 142.5 1008 0 6 -- Chart
1952 11 22 12 29.2 145.1 1010 0 6 -- Chart
1952 11 22 18 29.9 148.1 1012 0 6 -- Chart
1952 11 23 00 30.1 150.1 1014 0 6 -- Chart
1952 11 23 06 30.3 153.9 1010 0 6 -- Chart
1952 11 23 12 31.6 156.7 1014 0 6 -- Chart
1952 11 23 18 32.9 159.7 1014 0 6 -- Chart
1952 11 24 00 32.6 161.5 1016 0 6 -- Chart
1952 11 24 06 31.5 163.5 1012 0 6 -- Chart
1952 11 24 12 33.5 168.0 1010 0 6 -- Chart
1952 11 24 18 35.5 171.4 1006 0 6 -- Chart
1952 11 25 00 36.5 175.5 1006 0 6 -- Chart
1952 11 25 06 37.9 179.0 1002 0 6 -- Chart
1952 11 25 12 38.6 182.4 998 0 6 -- Chart
Japan Meteorological Agency Best Track Data | Correction Date : 1991-07-16
< Typhoon 195221 1952 Season Typhoon 195223 >

Help